AST,Max TemperatureF,Mean TemperatureF,Min TemperatureF,Max Dew PointF,MeanDew PointF,Min DewpointF,Max Humidity, Mean Humidity, Min Humidity, Max Sea Level PressureIn, Mean Sea Level PressureIn, Min Sea Level PressureIn, Max VisibilityMiles, Mean VisibilityMiles, Min VisibilityMiles, Max Wind SpeedMPH, Mean Wind SpeedMPH, Max Gust SpeedMPH,PrecipitationIn, CloudCover, Events, WindDirDegrees
2013-6-1,86,82,77,79,76,73,100,83,64,30.01,29.97,29.94,11,7,4,29,22,,0.12,6,Rain,101
2013-6-2,86,81,76,81,77,75,100,87,72,30.02,29.98,29.95,14,8,5,26,21,,0.04,6,Rain,102
2013-6-3,86,81,76,81,77,73,100,86,75,30.04,29.99,29.95,14,7,5,25,20,,0.01,6,Rain,128
2013-6-4,87,82,78,81,78,75,100,87,74,30.04,30.00,29.95,15,7,4,23,19,,0.08,6,Rain,112
2013-6-5,86,82,79,79,76,72,89,80,63,30.01,29.96,29.91,15,8,6,25,20,,0.00,6,,105
2013-6-6,85,82,78,75,73,72,83,75,61,30.01,29.96,29.92,19,9,6,18,16,,0.00,6,,110
2013-6-7,85,82,78,73,72,70,83,74,62,30.01,29.97,29.92,15,7,6,15,14,,0.00,5,,112
2013-6-8,86,82,77,79,75,73,94,81,67,30.04,29.99,29.95,15,7,6,20,15,,0.08,5,Rain,115
2013-6-9,85,82,78,80,77,75,98,87,73,30.01,29.96,29.92,17,7,4,26,21,,0.16,6,Rain,110
2013-6-10,86,82,79,79,77,75,94,82,62,30.01,29.96,29.92,17,8,6,23,19,,0.00,6,Rain,116
2013-6-11,87,82,77,81,77,75,100,84,68,30.04,29.98,29.95,12,7,5,26,20,,0.08,5,Rain,110
2013-6-12,87,82,78,79,76,39,94,80,24,30.02,29.99,29.95,12,8,6,26,21,,0.01,3,Rain,109
2013-6-13,87,82,76,81,78,75,100,87,65,30.00,29.97,29.92,11,6,5,30,22,,0.01,5,Rain,118
2013-6-14,87,82,78,79,77,75,100,84,68,30.01,29.97,29.92,6,6,6,28,24,,0.04,6,Rain,118
2013-6-15,87,83,79,77,76,73,89,79,64,30.01,29.97,29.92,6,6,6,26,23,,0.00,6,,107
2013-6-16,87,83,79,77,76,73,89,80,64,30.01,29.96,29.92,9,6,6,26,23,,0.00,5,Rain,112
2013-6-17,86,82,77,79,77,73,100,83,66,30.01,29.97,29.92,11,7,6,28,23,,0.08,6,Rain,111
2013-6-18,83,80,75,79,76,73,100,87,73,30.04,29.97,29.92,10,6,3,29,23,,0.47,6,Rain-Thunderstorm,124
2013-6-19,86,80,74,81,77,74,100,88,66,30.01,29.95,29.89,11,7,6,26,18,,0.00,6,Rain,107
2013-6-20,86,82,77,77,74,72,94,78,62,30.01,29.96,29.92,11,7,3,24,19,,0.16,6,Rain,97
2013-6-21,85,80,75,75,73,70,89,76,63,30.01,29.96,29.92,19,8,6,18,13,,0.00,3,,110
2013-6-22,86,82,79,76,75,73,89,78,63,30.01,29.97,29.92,19,9,6,23,19,,0.00,5,,117
2013-6-23,86,82,78,79,76,73,89,82,72,30.01,29.97,29.92,17,9,6,24,19,,0.00,5,Rain,109
2013-6-24,86,83,80,79,76,73,90,80,68,30.01,29.97,29.94,19,9,6,23,20,,0.00,4,,111
2013-6-25,86,82,77,81,78,75,100,89,75,30.01,29.96,29.92,16,7,2,25,18,,0.28,6,Rain,115
2013-6-26,86,82,79,77,75,74,89,80,65,30.03,29.99,29.95,16,9,6,25,20,,0.00,5,,120
2013-6-27,86,82,79,77,74,73,89,78,62,30.04,29.98,29.95,16,8,6,24,21,,0.00,3,Rain,112
2013-6-28,87,80,73,77,75,72,100,84,58,30.01,29.96,29.92,16,7,2,24,19,,0.28,5,Rain,91
2013-6-29,82,78,73,79,76,73,100,92,78,30.01,29.95,29.89,16,7,4,24,13,,0.08,6,Rain,106
2013-6-30,86,82,78,79,75,73,94,80,62,30.01,29.96,29.92,16,8,4,28,24,,0.00,5,Rain,122